createdAt,value
2022-11-26T00:02:01.063Z,6.22
2022-11-26T00:04:28.651Z,6.32
2022-11-26T00:06:56.313Z,6.25
2022-11-26T00:09:26.021Z,6.28
2022-11-26T00:11:53.719Z,6.24
2022-11-26T00:14:21.360Z,6.27
2022-11-26T00:16:50.456Z,6.22
2022-11-26T00:19:18.078Z,6.14
2022-11-26T00:21:45.654Z,6.10
2022-11-26T00:24:27.584Z,6.14
2022-11-26T00:26:58.327Z,5.99
2022-11-26T00:29:25.988Z,6.01
2022-11-26T00:31:55.260Z,5.90
2022-11-26T00:34:22.930Z,5.96
2022-11-26T00:36:50.650Z,5.94
2022-11-26T00:39:22.459Z,5.99
2022-11-26T00:41:52.322Z,5.99
2022-11-26T00:44:22.349Z,6.00
2022-11-26T00:46:50.467Z,6.06
2022-11-26T00:49:20.766Z,6.00
2022-11-26T00:51:48.609Z,6.08
2022-11-26T00:54:19.494Z,5.98
2022-11-26T00:56:51.680Z,6.00
2022-11-26T00:59:22.026Z,5.95
2022-11-26T01:01:52.872Z,5.89
2022-11-26T01:04:21.816Z,5.99
2022-11-26T01:06:49.546Z,6.02
2022-11-26T01:09:19.497Z,5.96
2022-11-26T01:11:52.349Z,5.99
2022-11-26T01:14:23.827Z,5.96
2022-11-26T01:16:54.176Z,5.95
2022-11-26T01:19:23.164Z,5.89
2022-11-26T01:21:50.730Z,5.85
2022-11-26T01:24:18.361Z,5.84
2022-11-26T01:26:46.298Z,5.84
2022-11-26T01:29:16.636Z,5.86
2022-11-26T01:31:44.599Z,5.93
2022-11-26T01:34:13.518Z,5.92
2022-11-26T01:36:42.950Z,5.90
2022-11-26T01:39:15.939Z,5.89
2022-11-26T01:41:53.610Z,5.86
2022-11-26T01:44:26.833Z,5.77
2022-11-26T01:46:55.695Z,5.79
2022-11-26T01:49:25.938Z,5.93
2022-11-26T01:52:04.319Z,5.85
2022-11-26T01:54:37.862Z,5.87
2022-11-26T01:57:12.506Z,5.86
2022-11-26T01:59:43.650Z,5.81
2022-11-26T02:02:13.573Z,5.89
2022-11-26T02:04:50.605Z,5.76
2022-11-26T02:07:21.321Z,5.72
2022-11-26T02:09:50.663Z,5.78
2022-11-26T02:12:18.764Z,5.71
2022-11-26T02:14:46.844Z,5.75
2022-11-26T02:17:24.457Z,5.73
2022-11-26T02:20:22.847Z,5.71
2022-11-26T02:23:32.580Z,5.61
2022-11-26T02:26:39.369Z,5.48
2022-11-26T02:29:23.116Z,5.49
2022-11-26T02:31:57.705Z,5.46
2022-11-26T02:34:38.063Z,5.52
2022-11-26T02:37:11.862Z,5.55
2022-11-26T02:39:39.474Z,5.52
2022-11-26T02:42:25.454Z,5.55
2022-11-26T02:44:55.848Z,5.48
2022-11-26T02:47:27.445Z,5.58
2022-11-26T02:49:57.185Z,5.55
2022-11-26T02:52:29.565Z,5.47
2022-11-26T02:55:02.433Z,5.40
2022-11-26T02:57:34.305Z,5.37
2022-11-26T03:00:04.709Z,5.43
2022-11-26T03:02:40.822Z,5.39
2022-11-26T03:05:10.551Z,5.45
2022-11-26T03:07:41.823Z,5.43
2022-11-26T03:10:11.607Z,5.47
2022-11-26T03:12:39.271Z,5.38
2022-11-26T03:15:07.939Z,5.35
2022-11-26T03:17:37.424Z,5.34
2022-11-26T03:20:06.002Z,5.37
2022-11-26T03:22:35.067Z,5.37
2022-11-26T03:25:02.806Z,5.32
2022-11-26T03:27:30.437Z,5.31
2022-11-26T03:29:59.111Z,5.38
2022-11-26T03:32:26.970Z,5.42
2022-11-26T03:34:56.048Z,5.34
2022-11-26T03:37:23.741Z,5.34
2022-11-26T03:39:52.017Z,5.30
2022-11-26T03:42:19.910Z,5.23
2022-11-26T03:44:47.530Z,5.23
2022-11-26T03:47:15.245Z,5.26
2022-11-26T03:49:42.941Z,5.20
2022-11-26T03:52:12.160Z,5.19
2022-11-26T03:54:41.897Z,5.31
2022-11-26T03:57:09.553Z,5.31
2022-11-26T03:59:37.427Z,5.35
2022-11-26T04:02:07.145Z,5.26
2022-11-26T04:04:34.955Z,5.18
2022-11-26T04:07:02.712Z,5.10
2022-11-26T04:09:31.903Z,5.09
2022-11-26T04:11:59.489Z,5.09
2022-11-26T04:14:27.190Z,5.13
2022-11-26T04:16:55.019Z,5.06
2022-11-26T04:19:22.682Z,5.08
2022-11-26T04:21:50.342Z,5.03
2022-11-26T04:24:18.005Z,4.94
2022-11-26T04:26:46.926Z,4.98
2022-11-26T04:29:14.670Z,5.02
2022-11-26T04:31:42.439Z,5.00
2022-11-26T04:34:10.153Z,5.03
2022-11-26T04:36:39.250Z,4.93
2022-11-26T04:39:06.992Z,4.89
2022-11-26T04:41:36.734Z,4.84
2022-11-26T04:44:05.965Z,4.74
2022-11-26T04:46:34.197Z,4.76
2022-11-26T04:49:01.823Z,4.74
2022-11-26T04:51:29.515Z,4.73
2022-11-26T04:54:00.427Z,4.78
2022-11-26T04:56:30.419Z,4.69
2022-11-26T04:58:58.077Z,4.67
2022-11-26T05:01:27.400Z,4.68
2022-11-26T05:03:55.097Z,4.63
2022-11-26T05:06:22.935Z,4.62
2022-11-26T05:08:50.611Z,4.61
2022-11-26T05:11:18.376Z,4.64
2022-11-26T05:13:46.017Z,4.67
2022-11-26T05:16:13.781Z,4.61
2022-11-26T05:18:42.796Z,4.65
2022-11-26T05:21:10.458Z,4.61
2022-11-26T05:23:38.028Z,4.70
2022-11-26T05:26:05.736Z,4.66
2022-11-26T05:28:33.551Z,4.72
2022-11-26T05:31:02.277Z,4.67
2022-11-26T05:33:30.508Z,4.65
2022-11-26T05:36:01.816Z,4.64
2022-11-26T05:38:29.734Z,4.69
2022-11-26T05:40:57.669Z,4.65
2022-11-26T05:43:25.299Z,4.69
2022-11-26T05:45:52.985Z,4.60
2022-11-26T05:48:23.575Z,4.59
2022-11-26T05:50:59.546Z,4.61
2022-11-26T05:53:27.404Z,4.54
2022-11-26T05:55:55.023Z,4.57
2022-11-26T05:58:22.630Z,4.55
2022-11-26T06:00:50.236Z,4.54
2022-11-26T06:03:20.417Z,4.50
2022-11-26T06:05:49.609Z,4.57
2022-11-26T06:08:20.944Z,4.70
2022-11-26T06:10:48.498Z,4.70
2022-11-26T06:13:16.325Z,4.64
2022-11-26T06:15:43.971Z,4.61
2022-11-26T06:18:11.604Z,4.55
2022-11-26T06:20:39.501Z,4.68
2022-11-26T06:23:07.118Z,4.67
2022-11-26T06:25:36.118Z,4.57
2022-11-26T06:28:03.833Z,4.59
2022-11-26T06:30:31.818Z,4.52
2022-11-26T06:32:59.404Z,4.52
2022-11-26T06:35:27.089Z,4.46
2022-11-26T06:37:54.708Z,4.47
2022-11-26T06:40:22.329Z,4.54
2022-11-26T06:42:52.079Z,4.55
2022-11-26T06:45:19.918Z,4.55
2022-11-26T06:47:55.339Z,4.53
2022-11-26T06:50:24.522Z,4.51
2022-11-26T06:52:53.272Z,4.53
2022-11-26T06:55:21.557Z,4.49
2022-11-26T06:57:52.484Z,4.57
2022-11-26T07:00:22.050Z,4.47
2022-11-26T07:02:50.124Z,4.46
2022-11-26T07:05:18.009Z,4.42
2022-11-26T07:07:45.687Z,4.41
2022-11-26T07:10:13.610Z,4.40
2022-11-26T07:12:41.236Z,4.45
2022-11-26T07:15:11.798Z,4.44
2022-11-26T07:17:39.712Z,4.51
2022-11-26T07:20:08.478Z,4.69
2022-11-26T07:22:36.190Z,4.85
2022-11-26T07:25:08.098Z,4.89
2022-11-26T07:27:40.115Z,5.13
2022-11-26T07:30:10.887Z,5.19
2022-11-26T07:32:38.713Z,5.35
2022-11-26T07:35:07.129Z,5.57
2022-11-26T07:37:36.001Z,5.76
2022-11-26T07:40:07.675Z,5.90
2022-11-26T07:42:37.761Z,5.95
2022-11-26T07:45:07.157Z,6.14
2022-11-26T07:47:36.408Z,6.46
2022-11-26T07:50:04.855Z,6.58
2022-11-26T07:52:36.289Z,6.71
2022-11-26T07:55:08.069Z,6.48
2022-11-26T07:57:38.719Z,6.28
2022-11-26T08:00:08.082Z,6.20
2022-11-26T08:02:38.343Z,6.06
2022-11-26T08:05:11.187Z,5.97
2022-11-26T08:07:39.278Z,6.07
2022-11-26T08:10:08.056Z,5.98
2022-11-26T08:12:37.312Z,5.95
2022-11-26T08:15:05.983Z,5.88
2022-11-26T08:17:33.904Z,6.07
2022-11-26T08:20:02.879Z,6.17
2022-11-26T08:22:31.021Z,6.16
2022-11-26T08:24:58.833Z,6.15
2022-11-26T08:27:26.462Z,6.24
2022-11-26T08:29:54.062Z,6.26
2022-11-26T08:32:22.009Z,6.31
2022-11-26T08:34:50.940Z,6.29
2022-11-26T08:37:20.261Z,6.36
2022-11-26T08:39:48.112Z,6.52
2022-11-26T08:42:18.179Z,6.64
2022-11-26T08:44:48.440Z,6.64
2022-11-26T08:47:16.174Z,6.75
2022-11-26T08:49:43.838Z,6.75
2022-11-26T08:52:11.434Z,6.87
2022-11-26T08:54:44.853Z,6.91
2022-11-26T08:57:13.029Z,6.91
2022-11-26T08:59:40.598Z,7.00
2022-11-26T09:02:09.984Z,7.10
2022-11-26T09:04:38.549Z,7.11
2022-11-26T09:07:06.658Z,7.25
2022-11-26T09:09:34.595Z,7.29
2022-11-26T09:12:04.572Z,7.37
2022-11-26T09:14:37.412Z,7.22
2022-11-26T09:17:05.815Z,7.27
2022-11-26T09:19:37.916Z,7.15
2022-11-26T09:22:05.943Z,7.09
2022-11-26T09:24:34.036Z,7.07
2022-11-26T09:27:08.009Z,7.10
2022-11-26T09:29:37.095Z,7.17
2022-11-26T09:32:23.526Z,7.11
2022-11-26T09:34:53.190Z,7.46
2022-11-26T09:37:23.271Z,7.67
2022-11-26T09:39:51.060Z,7.48
2022-11-26T09:42:42.755Z,7.66
2022-11-26T09:45:20.520Z,7.39
2022-11-26T09:47:53.271Z,7.32
2022-11-26T09:50:27.831Z,7.22
2022-11-26T09:53:00.311Z,7.20
2022-11-26T09:55:32.647Z,7.33
2022-11-26T09:58:15.849Z,7.32
2022-11-26T10:00:47.740Z,7.41
2022-11-26T10:03:19.729Z,7.42
2022-11-26T10:05:58.151Z,7.59
2022-11-26T10:08:53.337Z,7.75
2022-11-26T10:11:29.688Z,7.92
2022-11-26T10:14:09.141Z,7.92
2022-11-26T10:16:45.206Z,8.02
2022-11-26T10:19:20.244Z,7.94
2022-11-26T10:22:00.972Z,8.11
2022-11-26T10:24:34.352Z,8.05
2022-11-26T10:27:08.189Z,8.02
2022-11-26T10:29:43.085Z,8.09
2022-11-26T10:32:16.754Z,8.25
2022-11-26T10:34:51.348Z,8.31
2022-11-26T10:37:22.567Z,8.43
2022-11-26T10:39:55.433Z,8.52
2022-11-26T10:42:26.343Z,8.76
2022-11-26T10:44:59.701Z,8.81
2022-11-26T10:47:36.106Z,8.59
2022-11-26T10:50:46.604Z,8.56
2022-11-26T10:53:24.934Z,8.69
2022-11-26T10:55:58.680Z,8.79
2022-11-26T10:58:31.941Z,8.90
2022-11-26T11:01:07.256Z,8.94
2022-11-26T11:04:07.238Z,9.13
2022-11-26T11:06:43.553Z,9.17
2022-11-26T11:09:26.024Z,9.05
2022-11-26T11:12:17.567Z,9.10
2022-11-26T11:14:49.822Z,9.18
2022-11-26T11:17:30.594Z,8.95
2022-11-26T11:20:02.469Z,8.74
2022-11-26T11:22:30.932Z,8.71
2022-11-26T11:25:05.325Z,8.68
2022-11-26T11:30:27.141Z,8.55
2022-11-26T11:33:00.738Z,8.58
2022-11-26T11:35:31.349Z,8.58
2022-11-26T11:38:04.201Z,8.64
2022-11-26T11:40:54.474Z,8.65
2022-11-26T11:43:34.876Z,8.66
2022-11-26T11:46:15.004Z,8.73
2022-11-26T11:48:55.695Z,8.65
2022-11-26T11:51:34.868Z,8.80
2022-11-26T11:54:16.547Z,8.75
2022-11-26T11:56:52.490Z,8.92
2022-11-26T11:59:47.514Z,9.20
2022-11-26T12:02:35.052Z,9.16
2022-11-26T12:05:23.835Z,9.15
2022-11-26T12:08:01.226Z,9.14
2022-11-26T12:10:35.718Z,9.32
2022-11-26T12:13:12.325Z,9.42
2022-11-26T12:15:51.648Z,9.37
2022-11-26T12:18:26.768Z,9.54
2022-11-26T12:21:02.267Z,9.39
2022-11-26T12:23:36.590Z,9.13
2022-11-26T12:26:08.762Z,9.13
2022-11-26T12:28:43.208Z,9.02
2022-11-26T12:31:19.955Z,9.02
2022-11-26T12:33:53.985Z,9.30
2022-11-26T12:36:27.728Z,9.39
2022-11-26T12:39:00.979Z,9.50
2022-11-26T12:41:35.729Z,9.56
2022-11-26T12:44:14.997Z,9.34
2022-11-26T12:46:45.494Z,9.09
2022-11-26T12:49:21.314Z,9.04
2022-11-26T12:52:00.806Z,8.90
2022-11-26T12:54:37.504Z,8.91
2022-11-26T12:57:13.948Z,9.09
2022-11-26T12:59:47.649Z,9.01
2022-11-26T13:02:21.447Z,9.21
2022-11-26T13:04:49.746Z,9.42
2022-11-26T13:07:44.465Z,9.45
2022-11-26T13:10:21.675Z,9.24
2022-11-26T13:12:57.269Z,9.39
2022-11-26T13:15:34.342Z,9.19
2022-11-26T13:18:03.736Z,9.21
2022-11-26T13:20:44.339Z,9.17
2022-11-26T13:23:29.612Z,8.94
2022-11-26T13:26:12.051Z,8.58
2022-11-26T13:28:59.499Z,8.19
2022-11-26T13:31:47.682Z,7.93
2022-11-26T13:34:27.477Z,7.80
2022-11-26T13:37:07.508Z,7.67
2022-11-26T13:40:00.604Z,7.57
2022-11-26T13:42:53.017Z,7.56
2022-11-26T13:45:51.438Z,7.50
2022-11-26T13:48:25.212Z,7.45
2022-11-26T13:50:59.660Z,7.56
2022-11-26T13:53:31.596Z,7.56
2022-11-26T13:56:03.414Z,7.74
2022-11-26T13:58:36.977Z,7.68
2022-11-26T14:01:35.375Z,7.82
2022-11-26T14:04:04.435Z,7.83
2022-11-26T14:06:32.153Z,7.70
2022-11-26T14:08:59.853Z,7.58
2022-11-26T14:11:58.059Z,7.53
2022-11-26T14:14:35.821Z,7.57
2022-11-26T14:17:17.603Z,7.48
2022-11-26T14:20:02.198Z,7.54
2022-11-26T14:22:32.453Z,7.62
2022-11-26T14:25:04.624Z,7.31
2022-11-26T14:27:37.750Z,7.46
2022-11-26T14:30:27.655Z,7.55
2022-11-26T14:33:12.253Z,7.58
2022-11-26T14:35:43.285Z,7.47
2022-11-26T14:38:24.675Z,7.68
2022-11-26T14:40:59.073Z,7.61
2022-11-26T14:43:29.638Z,7.54
2022-11-26T14:46:04.420Z,7.44
2022-11-26T14:48:36.641Z,7.62
2022-11-26T14:51:10.364Z,7.63
2022-11-26T14:53:43.768Z,7.59
2022-11-26T14:56:12.477Z,7.55
2022-11-26T14:58:54.899Z,7.53
2022-11-26T15:01:25.390Z,7.64
2022-11-26T15:04:01.779Z,7.65
2022-11-26T15:06:35.020Z,7.61
2022-11-26T15:09:13.723Z,7.64
2022-11-26T15:11:49.144Z,7.74
2022-11-26T15:14:23.931Z,7.74
2022-11-26T15:17:01.887Z,7.68
2022-11-26T15:19:36.536Z,7.64
2022-11-26T15:22:28.979Z,7.64
2022-11-26T15:25:01.977Z,7.80
2022-11-26T15:27:44.687Z,7.79
2022-11-26T15:30:26.355Z,7.59
2022-11-26T15:33:01.304Z,7.68
2022-11-26T15:35:32.947Z,7.79
2022-11-26T15:38:02.842Z,7.69
2022-11-26T15:40:35.713Z,7.59
2022-11-26T15:43:05.125Z,7.52
2022-11-26T15:45:54.450Z,7.40
2022-11-26T15:48:50.496Z,7.42
2022-11-26T15:51:47.282Z,7.40
2022-11-26T15:54:23.973Z,7.47
2022-11-26T15:56:57.944Z,7.32
2022-11-26T15:59:28.641Z,7.40
2022-11-26T16:02:08.565Z,7.41
2022-11-26T16:04:43.199Z,7.45
2022-11-26T16:07:16.239Z,7.38
2022-11-26T16:09:44.659Z,7.53
2022-11-26T16:12:27.914Z,7.49
2022-11-26T16:15:13.417Z,7.47
2022-11-26T16:17:48.238Z,7.38
2022-11-26T16:20:19.124Z,7.49
2022-11-26T16:22:48.712Z,7.44
2022-11-26T16:28:15.259Z,7.61
2022-11-26T16:30:46.072Z,7.51
2022-11-26T16:33:21.296Z,7.61
2022-11-26T16:35:56.426Z,7.68
2022-11-26T16:38:26.963Z,7.59
2022-11-26T16:40:56.494Z,7.58
2022-11-26T16:43:26.741Z,7.52
2022-11-26T16:45:56.548Z,7.44
2022-11-26T16:48:28.191Z,7.51
2022-11-26T16:50:59.346Z,7.51
2022-11-26T16:53:32.365Z,7.53
2022-11-26T16:56:02.242Z,7.66
2022-11-26T16:58:35.570Z,7.62
2022-11-26T17:01:06.306Z,7.65
2022-11-26T17:03:40.749Z,7.71
2022-11-26T17:06:18.585Z,7.72
2022-11-26T17:11:36.879Z,7.54
2022-11-26T17:14:14.411Z,7.61
2022-11-26T17:16:44.393Z,7.64
2022-11-26T17:19:16.499Z,7.63
2022-11-26T17:21:48.128Z,7.72
2022-11-26T17:27:08.708Z,7.68
2022-11-26T17:29:42.785Z,7.71
2022-11-26T17:32:14.576Z,7.75
2022-11-26T17:34:46.738Z,7.75
2022-11-26T17:37:22.263Z,7.80
2022-11-26T17:39:50.733Z,7.83
2022-11-26T17:42:21.825Z,7.81
2022-11-26T17:44:52.246Z,7.82
2022-11-26T17:47:31.144Z,7.82
2022-11-26T17:50:03.308Z,7.74
2022-11-26T17:52:33.111Z,7.80
2022-11-26T17:55:23.343Z,7.72
2022-11-26T17:58:01.844Z,7.57
2022-11-26T18:00:34.642Z,7.59
2022-11-26T18:03:06.172Z,7.63
2022-11-26T18:05:41.616Z,7.71
2022-11-26T18:08:12.163Z,7.62
2022-11-26T18:10:43.519Z,7.58
2022-11-26T18:13:11.789Z,7.66
2022-11-26T18:15:40.136Z,7.68
2022-11-26T18:18:09.415Z,7.77
2022-11-26T18:20:40.072Z,7.78
2022-11-26T18:23:13.973Z,7.77
2022-11-26T18:25:42.005Z,7.69
2022-11-26T18:28:19.052Z,7.62
2022-11-26T18:30:55.567Z,7.68
2022-11-26T18:33:23.553Z,7.79
2022-11-26T18:35:55.583Z,7.75
2022-11-26T18:38:28.760Z,7.78
2022-11-26T18:40:59.669Z,7.78
2022-11-26T18:43:33.683Z,7.69
2022-11-26T18:46:13.681Z,7.76
2022-11-26T18:48:49.512Z,7.79
2022-11-26T18:54:20.216Z,7.68
2022-11-26T18:57:15.466Z,7.69
2022-11-26T18:59:50.005Z,7.62
2022-11-26T19:02:20.486Z,7.57
2022-11-26T19:04:56.022Z,7.63
2022-11-26T19:07:39.746Z,7.66
2022-11-26T19:10:13.247Z,7.72
2022-11-26T19:12:56.288Z,7.61
2022-11-26T19:15:32.991Z,7.75
2022-11-26T19:18:00.835Z,7.60
2022-11-26T19:20:29.019Z,7.63
2022-11-26T19:22:59.753Z,7.74
2022-11-26T19:25:31.580Z,7.88
2022-11-26T19:28:04.556Z,7.88
2022-11-26T19:30:32.802Z,7.68
2022-11-26T19:33:01.478Z,7.76
2022-11-26T19:35:29.524Z,7.83
2022-11-26T19:38:09.225Z,7.71
2022-11-26T19:40:38.563Z,7.77
2022-11-26T19:43:07.651Z,7.76
2022-11-26T19:45:35.906Z,7.76
2022-11-26T19:48:04.339Z,7.70
2022-11-26T19:50:32.807Z,7.71
2022-11-26T19:53:02.918Z,7.73
2022-11-26T19:55:30.808Z,7.62
2022-11-26T19:57:59.056Z,7.71
2022-11-26T20:00:30.394Z,7.67
2022-11-26T20:03:00.970Z,7.72
2022-11-26T20:05:29.621Z,7.76
2022-11-26T20:08:00.687Z,7.92
2022-11-26T20:10:37.413Z,7.93
2022-11-26T20:13:05.774Z,8.01
2022-11-26T20:15:34.621Z,7.95
2022-11-26T20:18:07.264Z,7.96
2022-11-26T20:20:36.110Z,7.90
2022-11-26T20:23:07.121Z,7.95
2022-11-26T20:26:03.211Z,7.87
2022-11-26T20:28:31.208Z,7.58
2022-11-26T20:30:59.153Z,7.72
2022-11-26T20:33:27.482Z,7.88
2022-11-26T20:35:55.171Z,8.05
2022-11-26T20:38:30.741Z,7.97
2022-11-26T20:40:59.994Z,8.11
2022-11-26T20:43:28.859Z,7.93
2022-11-26T20:46:03.721Z,7.70
2022-11-26T20:48:32.073Z,7.57
2022-11-26T20:51:03.474Z,7.58
2022-11-26T20:53:37.250Z,7.46
2022-11-26T20:56:08.769Z,7.51
2022-11-26T20:58:40.149Z,7.37
2022-11-26T21:01:17.178Z,7.48
2022-11-26T21:03:49.337Z,7.50
2022-11-26T21:06:23.354Z,7.30
2022-11-26T21:08:55.778Z,7.31
2022-11-26T21:11:27.693Z,7.45
2022-11-26T21:13:56.047Z,7.47
2022-11-26T21:16:37.853Z,7.59
2022-11-26T21:19:08.760Z,7.59
2022-11-26T21:21:38.346Z,7.68
2022-11-26T21:24:08.623Z,7.70
2022-11-26T21:26:38.168Z,7.71
2022-11-26T21:29:06.331Z,7.72
2022-11-26T21:31:34.394Z,7.73
2022-11-26T21:34:08.591Z,7.70
2022-11-26T21:36:39.680Z,7.71
2022-11-26T21:39:08.540Z,7.66
2022-11-26T21:41:39.478Z,7.67
2022-11-26T21:44:07.115Z,7.63
2022-11-26T21:46:41.028Z,7.68
2022-11-26T21:49:09.658Z,7.63
2022-11-26T21:51:38.585Z,7.68
2022-11-26T21:54:08.267Z,7.54
2022-11-26T21:56:41.138Z,7.49
2022-11-26T21:59:10.582Z,7.56
2022-11-26T22:01:43.494Z,7.61
2022-11-26T22:04:14.538Z,7.67
2022-11-26T22:06:46.531Z,7.63
2022-11-26T22:09:15.949Z,7.44
2022-11-26T22:11:46.826Z,7.30
2022-11-26T22:14:18.240Z,7.37
2022-11-26T22:16:48.559Z,7.33
2022-11-26T22:19:16.747Z,7.44
2022-11-26T22:24:31.580Z,7.31
2022-11-26T22:27:00.838Z,6.98
2022-11-26T22:29:28.788Z,7.09
2022-11-26T22:31:57.321Z,7.15
2022-11-26T22:34:27.755Z,7.20
2022-11-26T22:36:59.488Z,7.02
2022-11-26T22:39:27.315Z,7.03
2022-11-26T22:41:55.330Z,6.99
2022-11-26T22:44:24.609Z,7.10
2022-11-26T22:46:52.158Z,7.18
2022-11-26T22:49:19.782Z,7.18
2022-11-26T22:51:47.902Z,7.27
2022-11-26T22:54:17.888Z,7.37
2022-11-26T22:56:45.990Z,7.43
2022-11-26T22:59:15.092Z,7.28
2022-11-26T23:01:44.154Z,7.19
2022-11-26T23:04:12.993Z,7.29
2022-11-26T23:06:40.812Z,7.25
2022-11-26T23:09:09.867Z,7.19
2022-11-26T23:11:40.010Z,7.08
2022-11-26T23:14:09.361Z,7.11
2022-11-26T23:16:37.994Z,7.06
2022-11-26T23:19:07.509Z,7.07
2022-11-26T23:21:38.354Z,7.17
2022-11-26T23:24:06.639Z,7.11
2022-11-26T23:26:36.320Z,7.19
2022-11-26T23:29:05.637Z,7.16
2022-11-26T23:31:36.012Z,7.14
2022-11-26T23:34:07.536Z,7.21
2022-11-26T23:36:37.626Z,7.19
2022-11-26T23:39:08.198Z,7.08
2022-11-26T23:41:36.410Z,6.95
2022-11-26T23:44:04.381Z,7.20
2022-11-26T23:46:35.303Z,7.22
2022-11-26T23:49:04.026Z,7.26
2022-11-26T23:51:33.589Z,7.30
2022-11-26T23:54:03.263Z,7.29
2022-11-26T23:56:34.161Z,7.33
2022-11-26T23:59:04.702Z,7.27
